TUP9630 UUWW-UNKL
Flight info
| Callsign | TUP9630 |
|---|---|
| Flight time | 4h 4m |
| Altitude | 33000 |
| Route | K0820F330 OLMUN T629 IPSIL T830 LAMGU N604 PIGUR T580 LITUN N869 KELOK B115 RANET |
| Aircraft | B752/M-SDE2E3FGHIJ3J4J7RWXY/LB1 |
Departure
| Time | 2026-05-04 14:10 |
|---|---|
| Airport | Vnukovo International Airport (UUWW) |
Arrival
| Time | 2026-05-04 18:15 |
|---|---|
| Airport | Krasnoyarsk International Airport (UNKL) |
| Time | Latitude | Longitude | Altitude | Speed | Heading |
|---|---|---|---|---|---|
| 2026-05-04 13:40 | 55.60702 | 37.28096 | 692 ft | 0 kts | 45° |
| 2026-05-04 13:54 | 55.60702 | 37.28097 | 690 ft | 0 kts | 45° |
| 2026-05-04 13:56 | 55.60701 | 37.28094 | 690 ft | 1 kts | 45° |
| 2026-05-04 13:56 | 55.60679 | 37.28055 | 690 ft | 2 kts | 45° |
| 2026-05-04 13:57 | 55.60671 | 37.28040 | 690 ft | 2 kts | 45° |
| 2026-05-04 13:57 | 55.60662 | 37.28023 | 690 ft | 1 kts | 45° |
| 2026-05-04 13:58 | 55.60652 | 37.28002 | 690 ft | 0 kts | 62° |
| 2026-05-04 14:02 | 55.60652 | 37.28003 | 690 ft | 0 kts | 65° |
| 2026-05-04 14:03 | 55.60649 | 37.28023 | 690 ft | 3 kts | 127° |
| 2026-05-04 14:03 | 55.60551 | 37.28115 | 690 ft | 8 kts | 199° |
| 2026-05-04 14:03 | 55.60513 | 37.28059 | 690 ft | 6 kts | 224° |
| 2026-05-04 14:04 | 55.60387 | 37.27867 | 690 ft | 13 kts | 198° |
| 2026-05-04 14:04 | 55.60292 | 37.27844 | 690 ft | 15 kts | 186° |
| 2026-05-04 14:04 | 55.60180 | 37.27857 | 690 ft | 15 kts | 159° |
| 2026-05-04 14:05 | 55.60074 | 37.28101 | 690 ft | 12 kts | 94° |
| 2026-05-04 14:05 | 55.60079 | 37.28263 | 690 ft | 12 kts | 85° |
| 2026-05-04 14:05 | 55.60093 | 37.28404 | 690 ft | 10 kts | 69° |
| 2026-05-04 14:06 | 55.60130 | 37.28496 | 690 ft | 8 kts | 45° |
| 2026-05-04 14:06 | 55.60164 | 37.28558 | 690 ft | 6 kts | 46° |
| 2026-05-04 14:06 | 55.60197 | 37.28620 | 690 ft | 9 kts | 51° |
| 2026-05-04 14:06 | 55.60188 | 37.28740 | 690 ft | 10 kts | 128° |
| 2026-05-04 14:07 | 55.60141 | 37.28826 | 690 ft | 8 kts | 141° |
| 2026-05-04 14:07 | 55.60098 | 37.28869 | 690 ft | 6 kts | 164° |
| 2026-05-04 14:07 | 55.60058 | 37.28887 | 690 ft | 5 kts | 166° |
| 2026-05-04 14:07 | 55.60015 | 37.28905 | 690 ft | 7 kts | 166° |
| 2026-05-04 14:08 | 55.59971 | 37.28925 | 690 ft | 6 kts | 166° |
| 2026-05-04 14:08 | 55.59918 | 37.28947 | 690 ft | 7 kts | 165° |
| 2026-05-04 14:08 | 55.59860 | 37.28973 | 690 ft | 8 kts | 165° |
| 2026-05-04 14:08 | 55.59809 | 37.28985 | 690 ft | 5 kts | 196° |
| 2026-05-04 14:09 | 55.59739 | 37.28730 | 691 ft | 45 kts | 249° |
| 2026-05-04 14:09 | 55.59541 | 37.27848 | 691 ft | 108 kts | 246° |
| 2026-05-04 14:10 | 55.58726 | 37.24469 | 994 ft | 171 kts | 246° |
| 2026-05-04 14:10 | 55.57993 | 37.22721 | 1444 ft | 182 kts | 234° |
| 2026-05-04 14:10 | 55.57224 | 37.21032 | 2225 ft | 172 kts | 232° |
| 2026-05-04 14:10 | 55.56520 | 37.19375 | 2831 ft | 172 kts | 240° |
| 2026-05-04 14:11 | 55.55895 | 37.17614 | 3494 ft | 168 kts | 239° |
| 2026-05-04 14:11 | 55.54220 | 37.14827 | 4498 ft | 188 kts | 190° |
| 2026-05-04 14:11 | 55.52884 | 37.15256 | 4876 ft | 210 kts | 148° |
| 2026-05-04 14:12 | 55.51944 | 37.17213 | 5488 ft | 215 kts | 108° |
| 2026-05-04 14:12 | 55.51819 | 37.19799 | 6049 ft | 218 kts | 76° |
| 2026-05-04 14:12 | 55.52449 | 37.25065 | 7116 ft | 230 kts | 76° |
| 2026-05-04 14:13 | 55.52779 | 37.27898 | 7427 ft | 248 kts | 76° |
| 2026-05-04 14:13 | 55.53144 | 37.31022 | 7725 ft | 270 kts | 76° |
| 2026-05-04 14:13 | 55.53531 | 37.34340 | 8145 ft | 286 kts | 77° |
| 2026-05-04 14:13 | 55.53945 | 37.37882 | 8516 ft | 301 kts | 76° |
| 2026-05-04 14:14 | 55.54369 | 37.41539 | 8920 ft | 310 kts | 76° |
| 2026-05-04 14:14 | 55.55235 | 37.49010 | 9018 ft | 319 kts | 76° |
| 2026-05-04 14:14 | 55.55668 | 37.52775 | 9937 ft | 312 kts | 76° |
| 2026-05-04 14:15 | 55.56585 | 37.60393 | 11187 ft | 319 kts | 69° |
| 2026-05-04 14:15 | 55.58618 | 37.67265 | 12484 ft | 322 kts | 58° |
| 2026-05-04 14:16 | 55.60880 | 37.74204 | 13745 ft | 328 kts | 57° |
| 2026-05-04 14:16 | 55.62027 | 37.77707 | 14357 ft | 332 kts | 57° |
| 2026-05-04 14:17 | 55.64229 | 37.84978 | 15258 ft | 348 kts | 64° |
| 2026-05-04 14:17 | 55.65277 | 37.88961 | 15301 ft | 368 kts | 62° |
| 2026-05-04 14:17 | 55.67507 | 37.97361 | 16140 ft | 383 kts | 63° |
| 2026-05-04 14:18 | 55.68648 | 38.01682 | 16652 ft | 387 kts | 63° |
| 2026-05-04 14:18 | 55.70931 | 38.10349 | 17707 ft | 393 kts | 63° |
| 2026-05-04 14:19 | 55.73252 | 38.19202 | 18762 ft | 399 kts | 63° |
| 2026-05-04 14:19 | 55.74420 | 38.23669 | 19281 ft | 401 kts | 63° |
| 2026-05-04 14:19 | 55.75581 | 38.28118 | 19739 ft | 405 kts | 63° |
| 2026-05-04 14:19 | 55.76770 | 38.32682 | 20201 ft | 408 kts | 63° |
| 2026-05-04 14:20 | 55.77959 | 38.37257 | 20718 ft | 410 kts | 63° |
| 2026-05-04 14:20 | 55.79154 | 38.41862 | 21122 ft | 414 kts | 63° |
| 2026-05-04 14:20 | 55.80370 | 38.46561 | 21621 ft | 416 kts | 63° |
| 2026-05-04 14:21 | 55.82782 | 38.55913 | 22475 ft | 422 kts | 63° |
| 2026-05-04 14:21 | 55.84003 | 38.60660 | 22950 ft | 423 kts | 63° |
| 2026-05-04 14:21 | 55.85230 | 38.65440 | 23340 ft | 427 kts | 63° |
| 2026-05-04 14:21 | 55.86617 | 38.70102 | 23734 ft | 427 kts | 54° |
| 2026-05-04 14:22 | 55.88418 | 38.74230 | 24144 ft | 425 kts | 44° |
| 2026-05-04 14:22 | 55.90619 | 38.77751 | 24536 ft | 424 kts | 34° |
| 2026-05-04 14:22 | 55.93009 | 38.80819 | 24925 ft | 425 kts | 32° |
| 2026-05-04 14:22 | 55.95432 | 38.83870 | 25339 ft | 427 kts | 32° |
| 2026-05-04 14:23 | 56.00282 | 38.90001 | 26079 ft | 431 kts | 32° |
| 2026-05-04 14:23 | 56.02719 | 38.93094 | 26401 ft | 434 kts | 32° |
| 2026-05-04 14:23 | 56.05210 | 38.96255 | 26798 ft | 434 kts | 32° |
| 2026-05-04 14:24 | 56.07643 | 38.99345 | 27126 ft | 437 kts | 32° |
| 2026-05-04 14:24 | 56.10148 | 39.02549 | 27433 ft | 439 kts | 32° |
| 2026-05-04 14:24 | 56.12600 | 39.05699 | 27782 ft | 440 kts | 32° |
| 2026-05-04 14:24 | 56.15089 | 39.08897 | 28117 ft | 442 kts | 32° |
| 2026-05-04 14:25 | 56.17606 | 39.12124 | 28452 ft | 443 kts | 32° |
| 2026-05-04 14:25 | 56.22597 | 39.18525 | 29051 ft | 446 kts | 32° |
| 2026-05-04 14:25 | 56.25149 | 39.21809 | 29335 ft | 448 kts | 32° |
| 2026-05-04 14:26 | 56.27657 | 39.25042 | 29676 ft | 448 kts | 32° |
| 2026-05-04 14:26 | 56.30204 | 39.28329 | 29910 ft | 451 kts | 32° |
| 2026-05-04 14:26 | 56.32722 | 39.31590 | 30187 ft | 452 kts | 32° |
| 2026-05-04 14:26 | 56.35282 | 39.34929 | 30458 ft | 454 kts | 32° |
| 2026-05-04 14:27 | 56.37836 | 39.38265 | 30703 ft | 456 kts | 32° |
| 2026-05-04 14:27 | 56.40386 | 39.41594 | 30989 ft | 456 kts | 32° |
| 2026-05-04 14:27 | 56.42959 | 39.44974 | 31255 ft | 457 kts | 32° |
| 2026-05-04 14:27 | 56.45535 | 39.48377 | 31474 ft | 458 kts | 32° |
| 2026-05-04 14:28 | 56.48105 | 39.51792 | 31725 ft | 459 kts | 32° |
| 2026-05-04 14:28 | 56.50679 | 39.55226 | 31915 ft | 461 kts | 32° |
| 2026-05-04 14:28 | 56.53264 | 39.58703 | 32247 ft | 459 kts | 32° |
| 2026-05-04 14:28 | 56.55820 | 39.62156 | 32601 ft | 457 kts | 32° |
| 2026-05-04 14:29 | 56.60878 | 39.69035 | 32841 ft | 456 kts | 33° |
| 2026-05-04 14:29 | 56.65954 | 39.76001 | 32844 ft | 455 kts | 33° |
| 2026-05-04 14:30 | 56.70529 | 39.83872 | 32861 ft | 463 kts | 49° |
| 2026-05-04 14:30 | 56.73620 | 39.94252 | 32849 ft | 474 kts | 66° |
| 2026-05-04 14:31 | 56.74536 | 40.00026 | 32852 ft | 478 kts | 74° |
| 2026-05-04 14:32 | 56.77298 | 40.23675 | 32840 ft | 479 kts | 74° |
| 2026-05-04 14:32 | 56.78670 | 40.35572 | 32837 ft | 480 kts | 74° |
| 2026-05-04 14:33 | 56.80028 | 40.47459 | 32846 ft | 478 kts | 74° |
| 2026-05-04 14:33 | 56.81367 | 40.59292 | 32846 ft | 478 kts | 73° |
| 2026-05-04 14:34 | 56.82709 | 40.71256 | 32832 ft | 480 kts | 75° |
| 2026-05-04 14:34 | 56.84023 | 40.83091 | 32832 ft | 479 kts | 75° |
| 2026-05-04 14:35 | 56.85335 | 40.95010 | 32836 ft | 478 kts | 75° |
| 2026-05-04 14:35 | 56.86637 | 41.06959 | 32832 ft | 479 kts | 74° |
| 2026-05-04 14:36 | 56.87928 | 41.18905 | 32832 ft | 480 kts | 74° |
| 2026-05-04 14:36 | 56.89199 | 41.30792 | 32829 ft | 479 kts | 74° |
| 2026-05-04 14:37 | 56.90464 | 41.42727 | 32828 ft | 479 kts | 74° |
| 2026-05-04 14:37 | 56.91722 | 41.54714 | 32827 ft | 480 kts | 74° |
| 2026-05-04 14:38 | 56.92967 | 41.66696 | 32824 ft | 480 kts | 75° |
| 2026-05-04 14:38 | 56.94206 | 41.78735 | 32831 ft | 481 kts | 75° |
| 2026-05-04 14:39 | 56.95427 | 41.90729 | 32839 ft | 481 kts | 75° |
| 2026-05-04 14:39 | 56.96636 | 42.02725 | 32845 ft | 480 kts | 75° |
| 2026-05-04 14:40 | 56.98424 | 42.20678 | 32849 ft | 481 kts | 75° |
| 2026-05-04 14:40 | 56.99607 | 42.32734 | 32845 ft | 480 kts | 75° |
| 2026-05-04 14:41 | 57.00777 | 42.44756 | 32846 ft | 481 kts | 75° |
| 2026-05-04 14:42 | 57.03088 | 42.68902 | 32844 ft | 482 kts | 75° |
| 2026-05-04 14:42 | 57.04225 | 42.80977 | 32847 ft | 482 kts | 75° |
| 2026-05-04 14:43 | 57.05352 | 42.93060 | 32846 ft | 484 kts | 75° |
| 2026-05-04 14:43 | 57.06470 | 43.05211 | 32846 ft | 480 kts | 75° |
| 2026-05-04 14:44 | 57.07571 | 43.17292 | 32846 ft | 480 kts | 75° |
| 2026-05-04 14:44 | 57.08661 | 43.29375 | 32847 ft | 481 kts | 75° |
| 2026-05-04 14:45 | 57.09738 | 43.41466 | 32848 ft | 479 kts | 75° |
| 2026-05-04 14:45 | 57.10796 | 43.53473 | 32859 ft | 481 kts | 75° |
| 2026-05-04 14:46 | 57.11852 | 43.65602 | 32858 ft | 480 kts | 76° |
| 2026-05-04 14:46 | 57.12898 | 43.77761 | 32856 ft | 481 kts | 76° |
| 2026-05-04 14:47 | 57.13927 | 43.89861 | 32854 ft | 480 kts | 75° |
| 2026-05-04 14:47 | 57.14950 | 44.02034 | 32853 ft | 481 kts | 75° |
| 2026-05-04 14:48 | 57.15955 | 44.14144 | 32853 ft | 481 kts | 75° |
| 2026-05-04 14:48 | 57.16946 | 44.26231 | 32852 ft | 479 kts | 75° |
| 2026-05-04 14:49 | 57.17925 | 44.38308 | 32854 ft | 480 kts | 75° |
| 2026-05-04 14:49 | 57.18898 | 44.50476 | 32854 ft | 478 kts | 75° |
| 2026-05-04 14:50 | 57.19854 | 44.62563 | 32853 ft | 479 kts | 75° |
| 2026-05-04 14:50 | 57.20794 | 44.74629 | 32846 ft | 480 kts | 76° |
| 2026-05-04 14:51 | 57.21734 | 44.86827 | 32845 ft | 479 kts | 76° |
| 2026-05-04 14:51 | 57.22655 | 44.98940 | 32848 ft | 482 kts | 76° |
| 2026-05-04 14:52 | 57.23568 | 45.11132 | 32846 ft | 478 kts | 76° |
| 2026-05-04 14:52 | 57.24466 | 45.23255 | 32850 ft | 478 kts | 76° |
| 2026-05-04 14:53 | 57.25348 | 45.35354 | 32843 ft | 478 kts | 75° |
| 2026-05-04 14:53 | 57.26231 | 45.47596 | 32848 ft | 480 kts | 76° |
| 2026-05-04 14:54 | 57.27085 | 45.59652 | 32844 ft | 477 kts | 75° |
| 2026-05-04 14:54 | 57.27931 | 45.71730 | 32841 ft | 476 kts | 76° |
| 2026-05-04 14:55 | 57.28767 | 45.83834 | 32838 ft | 477 kts | 76° |
| 2026-05-04 14:55 | 57.29594 | 45.95991 | 32838 ft | 477 kts | 76° |
| 2026-05-04 14:56 | 57.30410 | 46.08158 | 32838 ft | 478 kts | 76° |
| 2026-05-04 14:56 | 57.31210 | 46.20287 | 32849 ft | 477 kts | 76° |
| 2026-05-04 14:57 | 57.32000 | 46.32435 | 32849 ft | 478 kts | 76° |
| 2026-05-04 14:57 | 57.32779 | 46.44597 | 32847 ft | 478 kts | 76° |
| 2026-05-04 14:58 | 57.33548 | 46.56804 | 32848 ft | 477 kts | 76° |
| 2026-05-04 14:58 | 57.34302 | 46.68951 | 32838 ft | 477 kts | 77° |
| 2026-05-04 14:59 | 57.35565 | 46.80828 | 32856 ft | 465 kts | 63° |
| 2026-05-04 15:00 | 57.39558 | 46.96910 | 32836 ft | 461 kts | 58° |
| 2026-05-04 15:00 | 57.42213 | 47.07706 | 32831 ft | 462 kts | 59° |
| 2026-05-04 15:01 | 57.46154 | 47.24001 | 32835 ft | 461 kts | 59° |
| 2026-05-04 15:01 | 57.48759 | 47.34871 | 32834 ft | 463 kts | 59° |
| 2026-05-04 15:02 | 57.51351 | 47.45735 | 32837 ft | 463 kts | 59° |
| 2026-05-04 15:02 | 57.53944 | 47.56650 | 32841 ft | 464 kts | 59° |
| 2026-05-04 15:03 | 57.56544 | 47.67648 | 32842 ft | 466 kts | 60° |
| 2026-05-04 15:03 | 57.59144 | 47.78704 | 32843 ft | 466 kts | 60° |
| 2026-05-04 15:04 | 57.61728 | 47.89745 | 32845 ft | 468 kts | 60° |
| 2026-05-04 15:04 | 57.64300 | 48.00801 | 32844 ft | 467 kts | 60° |
| 2026-05-04 15:05 | 57.66877 | 48.11928 | 32841 ft | 469 kts | 60° |
| 2026-05-04 15:05 | 57.69452 | 48.23109 | 32841 ft | 468 kts | 61° |
| 2026-05-04 15:06 | 57.72003 | 48.34241 | 32842 ft | 470 kts | 61° |
| 2026-05-04 15:07 | 57.75835 | 48.51067 | 32842 ft | 470 kts | 61° |
| 2026-05-04 15:07 | 57.78386 | 48.62325 | 32845 ft | 471 kts | 61° |
| 2026-05-04 15:08 | 57.80934 | 48.73630 | 32843 ft | 472 kts | 62° |
| 2026-05-04 15:08 | 57.83447 | 48.84840 | 32840 ft | 471 kts | 63° |
| 2026-05-04 15:09 | 57.85983 | 48.96215 | 32840 ft | 470 kts | 63° |
| 2026-05-04 15:09 | 57.88473 | 49.07446 | 32837 ft | 470 kts | 63° |
| 2026-05-04 15:10 | 57.92212 | 49.24416 | 32831 ft | 472 kts | 63° |
| 2026-05-04 15:11 | 57.95946 | 49.41508 | 32813 ft | 473 kts | 63° |
| 2026-05-04 15:11 | 57.98438 | 49.52993 | 32816 ft | 475 kts | 63° |
| 2026-05-04 15:12 | 58.00925 | 49.64518 | 32820 ft | 476 kts | 64° |
| 2026-05-04 15:12 | 58.03386 | 49.75985 | 32802 ft | 475 kts | 65° |
| 2026-05-04 15:13 | 58.05852 | 49.87543 | 32821 ft | 475 kts | 65° |
| 2026-05-04 15:13 | 58.08304 | 49.99103 | 32805 ft | 475 kts | 65° |
| 2026-05-04 15:14 | 58.10738 | 50.10638 | 32823 ft | 476 kts | 65° |
| 2026-05-04 15:14 | 58.13179 | 50.22274 | 32832 ft | 477 kts | 65° |
| 2026-05-04 15:15 | 58.15598 | 50.33868 | 32828 ft | 477 kts | 65° |
| 2026-05-04 15:15 | 58.18026 | 50.45533 | 32820 ft | 476 kts | 65° |
| 2026-05-04 15:16 | 58.21642 | 50.63036 | 32825 ft | 478 kts | 65° |
| 2026-05-04 15:17 | 58.25239 | 50.80592 | 32817 ft | 479 kts | 66° |
| 2026-05-04 15:17 | 58.28819 | 50.98224 | 32817 ft | 479 kts | 66° |
| 2026-05-04 15:18 | 58.31195 | 51.10016 | 32815 ft | 479 kts | 67° |
| 2026-05-04 15:19 | 58.34730 | 51.27685 | 32811 ft | 479 kts | 67° |
| 2026-05-04 15:19 | 58.38245 | 51.45393 | 32816 ft | 479 kts | 67° |
| 2026-05-04 15:20 | 58.40579 | 51.57244 | 32826 ft | 480 kts | 67° |
| 2026-05-04 15:20 | 58.42983 | 51.69091 | 32831 ft | 480 kts | 66° |
| 2026-05-04 15:21 | 58.45493 | 51.80914 | 32821 ft | 480 kts | 66° |
| 2026-05-04 15:22 | 58.49210 | 51.98584 | 32820 ft | 480 kts | 66° |
| 2026-05-04 15:22 | 58.52893 | 52.16251 | 32825 ft | 479 kts | 66° |
| 2026-05-04 15:23 | 58.55348 | 52.28113 | 32821 ft | 480 kts | 66° |
| 2026-05-04 15:23 | 58.57792 | 52.39988 | 32812 ft | 480 kts | 66° |
| 2026-05-04 15:24 | 58.62641 | 52.63758 | 32805 ft | 481 kts | 66° |
| 2026-05-04 15:25 | 58.65051 | 52.75674 | 32794 ft | 481 kts | 67° |
| 2026-05-04 15:26 | 58.68652 | 52.93560 | 32784 ft | 481 kts | 67° |
| 2026-05-04 15:26 | 58.72231 | 53.11496 | 32796 ft | 482 kts | 68° |
| 2026-05-04 15:27 | 58.75801 | 53.29546 | 32794 ft | 482 kts | 68° |
| 2026-05-04 15:28 | 58.79345 | 53.47634 | 32802 ft | 483 kts | 68° |
| 2026-05-04 15:29 | 58.82866 | 53.65769 | 32809 ft | 484 kts | 68° |
| 2026-05-04 15:30 | 58.90416 | 54.08701 | 32801 ft | 485 kts | 71° |
| 2026-05-04 15:31 | 58.93428 | 54.27295 | 32799 ft | 484 kts | 71° |
| 2026-05-04 15:32 | 58.98395 | 54.58374 | 32803 ft | 486 kts | 71° |
| 2026-05-04 15:34 | 59.03296 | 54.89560 | 32800 ft | 485 kts | 72° |
| 2026-05-04 15:34 | 59.06199 | 55.08286 | 32814 ft | 485 kts | 72° |
| 2026-05-04 15:35 | 59.09081 | 55.27034 | 32804 ft | 486 kts | 72° |
| 2026-05-04 15:36 | 59.11945 | 55.45873 | 32780 ft | 485 kts | 72° |
| 2026-05-04 15:36 | 59.13838 | 55.58437 | 32786 ft | 485 kts | 72° |
| 2026-05-04 15:37 | 59.15714 | 55.70979 | 32768 ft | 486 kts | 73° |
| 2026-05-04 15:37 | 59.17596 | 55.83637 | 32768 ft | 485 kts | 73° |
| 2026-05-04 15:38 | 59.19459 | 55.96257 | 32781 ft | 486 kts | 73° |
| 2026-05-04 15:38 | 59.21311 | 56.08907 | 32779 ft | 485 kts | 73° |
| 2026-05-04 15:39 | 59.23140 | 56.21495 | 32772 ft | 485 kts | 73° |
| 2026-05-04 15:40 | 59.25867 | 56.40440 | 32780 ft | 485 kts | 73° |
| 2026-05-04 15:40 | 59.27670 | 56.53094 | 32773 ft | 486 kts | 73° |
| 2026-05-04 15:41 | 59.29470 | 56.65828 | 32778 ft | 485 kts | 74° |
| 2026-05-04 15:41 | 59.31250 | 56.78512 | 32781 ft | 486 kts | 74° |
| 2026-05-04 15:42 | 59.33014 | 56.91191 | 32783 ft | 485 kts | 74° |
| 2026-05-04 15:42 | 59.34769 | 57.03903 | 32794 ft | 485 kts | 74° |
| 2026-05-04 15:43 | 59.36431 | 57.16641 | 32799 ft | 485 kts | 76° |
| 2026-05-04 15:43 | 59.37989 | 57.29472 | 32818 ft | 485 kts | 75° |
| 2026-05-04 15:44 | 59.39534 | 57.42276 | 32776 ft | 483 kts | 75° |
| 2026-05-04 15:44 | 59.41065 | 57.55087 | 32798 ft | 484 kts | 75° |
| 2026-05-04 15:45 | 59.42587 | 57.67928 | 32794 ft | 484 kts | 76° |
| 2026-05-04 15:45 | 59.44093 | 57.80759 | 32791 ft | 484 kts | 76° |
| 2026-05-04 15:46 | 59.45591 | 57.93639 | 32778 ft | 485 kts | 76° |
| 2026-05-04 15:46 | 59.47077 | 58.06528 | 32770 ft | 486 kts | 76° |
| 2026-05-04 15:47 | 59.48551 | 58.19436 | 32770 ft | 485 kts | 76° |
| 2026-05-04 15:47 | 59.50008 | 58.32319 | 32772 ft | 484 kts | 76° |
| 2026-05-04 15:48 | 59.51455 | 58.45237 | 32782 ft | 485 kts | 76° |
| 2026-05-04 15:48 | 59.53601 | 58.64631 | 32766 ft | 485 kts | 76° |
| 2026-05-04 15:49 | 59.55019 | 58.77592 | 32761 ft | 485 kts | 77° |
| 2026-05-04 15:49 | 59.56424 | 58.90574 | 32777 ft | 486 kts | 77° |
| 2026-05-04 15:50 | 59.57815 | 59.03553 | 32776 ft | 485 kts | 77° |
| 2026-05-04 15:50 | 59.59200 | 59.16515 | 32762 ft | 484 kts | 77° |
| 2026-05-04 15:51 | 59.60576 | 59.29421 | 32768 ft | 484 kts | 77° |
| 2026-05-04 15:51 | 59.61948 | 59.42439 | 32786 ft | 485 kts | 77° |
| 2026-05-04 15:52 | 59.63303 | 59.55424 | 32773 ft | 485 kts | 77° |
| 2026-05-04 15:52 | 59.64652 | 59.68482 | 32767 ft | 485 kts | 77° |
| 2026-05-04 15:53 | 59.65980 | 59.81467 | 32750 ft | 485 kts | 78° |
| 2026-05-04 15:53 | 59.67294 | 59.94468 | 32752 ft | 484 kts | 78° |
| 2026-05-04 15:54 | 59.68598 | 60.07491 | 32747 ft | 483 kts | 77° |
| 2026-05-04 15:54 | 59.69881 | 60.20446 | 32750 ft | 484 kts | 77° |
| 2026-05-04 15:55 | 59.71163 | 60.33540 | 32754 ft | 483 kts | 77° |
| 2026-05-04 15:55 | 59.72419 | 60.46499 | 32755 ft | 484 kts | 78° |
| 2026-05-04 15:56 | 59.73676 | 60.59617 | 32760 ft | 484 kts | 78° |
| 2026-05-04 15:56 | 59.74914 | 60.72684 | 32745 ft | 484 kts | 78° |
| 2026-05-04 15:57 | 59.76134 | 60.85705 | 32743 ft | 484 kts | 78° |
| 2026-05-04 15:57 | 59.77350 | 60.98833 | 32749 ft | 483 kts | 78° |
| 2026-05-04 15:58 | 59.78551 | 61.11955 | 32743 ft | 483 kts | 78° |
| 2026-05-04 15:58 | 59.79729 | 61.24963 | 32750 ft | 481 kts | 78° |
| 2026-05-04 15:59 | 59.80892 | 61.37965 | 32742 ft | 481 kts | 78° |
| 2026-05-04 15:59 | 59.82049 | 61.51048 | 32740 ft | 481 kts | 78° |
| 2026-05-04 16:00 | 59.83190 | 61.64117 | 32748 ft | 481 kts | 78° |
| 2026-05-04 16:00 | 59.84318 | 61.77187 | 32738 ft | 481 kts | 79° |
| 2026-05-04 16:01 | 59.85427 | 61.90187 | 32746 ft | 480 kts | 79° |
| 2026-05-04 16:01 | 59.86529 | 62.03268 | 32754 ft | 480 kts | 79° |
| 2026-05-04 16:02 | 59.87611 | 62.16278 | 32764 ft | 478 kts | 79° |
| 2026-05-04 16:03 | 59.89209 | 62.35789 | 32752 ft | 478 kts | 79° |
| 2026-05-04 16:03 | 59.90267 | 62.48801 | 32748 ft | 477 kts | 79° |
| 2026-05-04 16:04 | 59.91320 | 62.61840 | 32750 ft | 478 kts | 79° |
| 2026-05-04 16:04 | 59.92875 | 62.81393 | 32742 ft | 477 kts | 79° |
| 2026-05-04 16:05 | 59.93896 | 62.94447 | 32740 ft | 477 kts | 79° |
| 2026-05-04 16:06 | 59.95399 | 63.14006 | 32736 ft | 476 kts | 79° |
| 2026-05-04 16:07 | 59.97353 | 63.40027 | 32745 ft | 476 kts | 79° |
| 2026-05-04 16:08 | 59.99251 | 63.66021 | 32754 ft | 474 kts | 81° |
| 2026-05-04 16:09 | 60.01616 | 63.98459 | 32752 ft | 472 kts | 75° |
| 2026-05-04 16:10 | 60.04743 | 64.23882 | 32764 ft | 473 kts | 75° |
| 2026-05-04 16:11 | 60.07779 | 64.49417 | 32770 ft | 471 kts | 75° |
| 2026-05-04 16:12 | 60.11345 | 64.87910 | 32784 ft | 473 kts | 92° |
| 2026-05-04 16:13 | 60.10319 | 65.14159 | 32783 ft | 473 kts | 94° |
| 2026-05-04 16:14 | 60.09135 | 65.40354 | 32774 ft | 473 kts | 94° |
| 2026-05-04 16:16 | 60.07569 | 65.72934 | 32783 ft | 472 kts | 96° |
| 2026-05-04 16:17 | 60.05923 | 66.05424 | 32795 ft | 470 kts | 96° |
| 2026-05-04 16:18 | 60.04550 | 66.31381 | 32770 ft | 471 kts | 96° |
| 2026-05-04 16:19 | 60.02766 | 66.63741 | 32777 ft | 470 kts | 96° |
| 2026-05-04 16:20 | 60.00888 | 66.96034 | 32775 ft | 469 kts | 97° |
| 2026-05-04 16:22 | 59.98931 | 67.28274 | 32761 ft | 470 kts | 97° |
| 2026-05-04 16:23 | 59.96471 | 67.67065 | 32802 ft | 471 kts | 97° |
| 2026-05-04 16:25 | 59.93889 | 68.05911 | 32793 ft | 472 kts | 98° |
| 2026-05-04 16:26 | 59.90729 | 68.51106 | 32785 ft | 473 kts | 98° |
| 2026-05-04 16:28 | 59.88371 | 68.83337 | 32795 ft | 471 kts | 99° |
| 2026-05-04 16:29 | 59.84940 | 69.28346 | 32810 ft | 472 kts | 99° |
| 2026-05-04 16:31 | 59.82394 | 69.60446 | 32819 ft | 473 kts | 99° |
| 2026-05-04 16:32 | 59.79239 | 69.99026 | 32818 ft | 473 kts | 101° |
| 2026-05-04 16:33 | 59.77076 | 70.24680 | 32831 ft | 471 kts | 101° |
| 2026-05-04 16:34 | 59.75431 | 70.43772 | 32808 ft | 472 kts | 101° |
| 2026-05-04 16:35 | 59.72080 | 70.81677 | 32842 ft | 471 kts | 102° |
| 2026-05-04 16:36 | 59.70341 | 71.00833 | 32841 ft | 472 kts | 102° |
| 2026-05-04 16:37 | 59.68584 | 71.19875 | 32842 ft | 472 kts | 102° |
| 2026-05-04 16:38 | 59.66185 | 71.45367 | 32846 ft | 473 kts | 103° |
| 2026-05-04 16:39 | 59.63109 | 71.77268 | 32834 ft | 473 kts | 103° |
| 2026-05-04 16:40 | 59.60589 | 72.02780 | 32848 ft | 473 kts | 103° |
| 2026-05-04 16:41 | 59.57375 | 72.34564 | 32845 ft | 476 kts | 104° |
| 2026-05-04 16:43 | 59.54054 | 72.66567 | 32858 ft | 477 kts | 105° |
| 2026-05-04 16:43 | 59.52037 | 72.85621 | 32844 ft | 477 kts | 105° |
| 2026-05-04 16:45 | 59.47887 | 73.23953 | 32859 ft | 479 kts | 105° |
| 2026-05-04 16:46 | 59.44345 | 73.55812 | 32875 ft | 479 kts | 105° |
| 2026-05-04 16:47 | 59.41441 | 73.81381 | 32882 ft | 481 kts | 105° |
| 2026-05-04 16:48 | 59.38477 | 74.06986 | 32880 ft | 484 kts | 105° |
| 2026-05-04 16:49 | 59.35457 | 74.32598 | 32876 ft | 485 kts | 105° |
| 2026-05-04 16:50 | 59.32512 | 74.58255 | 32877 ft | 486 kts | 103° |
| 2026-05-04 16:51 | 59.30494 | 74.77535 | 32879 ft | 485 kts | 104° |
| 2026-05-04 16:52 | 59.27735 | 75.03365 | 32888 ft | 488 kts | 104° |
| 2026-05-04 16:53 | 59.25625 | 75.22774 | 32899 ft | 490 kts | 104° |
| 2026-05-04 16:54 | 59.22757 | 75.48705 | 32900 ft | 489 kts | 104° |
| 2026-05-04 16:55 | 59.18351 | 75.87572 | 32914 ft | 493 kts | 105° |
| 2026-05-04 16:56 | 59.14572 | 76.19924 | 32914 ft | 493 kts | 105° |
| 2026-05-04 16:57 | 59.12269 | 76.39279 | 32926 ft | 493 kts | 105° |
| 2026-05-04 16:58 | 59.09150 | 76.65168 | 32927 ft | 491 kts | 105° |
| 2026-05-04 17:00 | 59.04403 | 77.03772 | 32941 ft | 492 kts | 105° |
| 2026-05-04 17:01 | 59.00348 | 77.35953 | 32947 ft | 492 kts | 105° |
| 2026-05-04 17:02 | 58.97056 | 77.61567 | 32946 ft | 491 kts | 105° |
| 2026-05-04 17:03 | 58.94555 | 77.80732 | 32940 ft | 489 kts | 105° |
| 2026-05-04 17:03 | 58.92004 | 78.00034 | 32941 ft | 500 kts | 105° |
| 2026-05-04 17:04 | 58.88479 | 78.26314 | 32945 ft | 505 kts | 105° |
| 2026-05-04 17:05 | 58.84907 | 78.52491 | 32971 ft | 506 kts | 105° |
| 2026-05-04 17:06 | 58.82187 | 78.72137 | 32969 ft | 505 kts | 106° |
| 2026-05-04 17:07 | 58.79739 | 78.89613 | 32966 ft | 507 kts | 106° |
| 2026-05-04 17:07 | 58.77578 | 79.04877 | 32969 ft | 507 kts | 106° |
| 2026-05-04 17:08 | 58.74763 | 79.24548 | 32977 ft | 507 kts | 105° |
| 2026-05-04 17:09 | 58.72880 | 79.37570 | 32980 ft | 506 kts | 105° |
| 2026-05-04 17:09 | 58.70990 | 79.50545 | 32980 ft | 506 kts | 105° |
| 2026-05-04 17:10 | 58.66910 | 79.83267 | 32982 ft | 505 kts | 100° |
| 2026-05-04 17:11 | 58.65628 | 79.96510 | 32989 ft | 505 kts | 100° |
| 2026-05-04 17:12 | 58.63671 | 80.16303 | 32986 ft | 504 kts | 100° |
| 2026-05-04 17:13 | 58.60326 | 80.49288 | 32991 ft | 504 kts | 100° |
| 2026-05-04 17:14 | 58.57590 | 80.75608 | 32988 ft | 504 kts | 101° |
| 2026-05-04 17:15 | 58.55502 | 80.95328 | 32986 ft | 503 kts | 101° |
| 2026-05-04 17:16 | 58.52681 | 81.21493 | 32997 ft | 504 kts | 101° |
| 2026-05-04 17:17 | 58.49802 | 81.47662 | 33011 ft | 504 kts | 101° |
| 2026-05-04 17:18 | 58.46871 | 81.73779 | 33015 ft | 505 kts | 101° |
| 2026-05-04 17:19 | 58.43879 | 81.99913 | 33024 ft | 504 kts | 101° |
| 2026-05-04 17:20 | 58.40840 | 82.25961 | 33032 ft | 505 kts | 101° |
| 2026-05-04 17:20 | 58.38525 | 82.45470 | 33031 ft | 506 kts | 101° |
| 2026-05-04 17:21 | 58.35375 | 82.71593 | 33026 ft | 506 kts | 101° |
| 2026-05-04 17:22 | 58.33787 | 82.84574 | 33036 ft | 505 kts | 101° |
| 2026-05-04 17:23 | 58.28965 | 83.09727 | 33043 ft | 510 kts | 111° |
| 2026-05-04 17:24 | 58.24809 | 83.28265 | 33038 ft | 509 kts | 111° |
| 2026-05-04 17:25 | 58.19185 | 83.52891 | 33049 ft | 510 kts | 111° |
| 2026-05-04 17:26 | 58.13509 | 83.77431 | 33051 ft | 511 kts | 112° |
| 2026-05-04 17:27 | 58.06317 | 84.08113 | 33064 ft | 512 kts | 111° |
| 2026-05-04 17:28 | 58.00502 | 84.32608 | 33068 ft | 512 kts | 111° |
| 2026-05-04 17:29 | 57.91689 | 84.69215 | 33065 ft | 514 kts | 112° |
| 2026-05-04 17:31 | 57.84232 | 84.99709 | 33065 ft | 514 kts | 111° |
| 2026-05-04 17:32 | 57.76680 | 85.30168 | 33079 ft | 517 kts | 111° |
| 2026-05-04 17:33 | 57.70580 | 85.54466 | 33065 ft | 517 kts | 111° |
| 2026-05-04 17:34 | 57.64429 | 85.78703 | 33068 ft | 517 kts | 111° |
| 2026-05-04 17:35 | 57.56661 | 86.08939 | 33080 ft | 517 kts | 111° |
| 2026-05-04 17:36 | 57.53549 | 86.20939 | 33082 ft | 518 kts | 111° |
| 2026-05-04 17:36 | 57.50409 | 86.32980 | 33080 ft | 518 kts | 111° |
| 2026-05-04 17:37 | 57.47269 | 86.44955 | 33087 ft | 519 kts | 111° |
| 2026-05-04 17:37 | 57.44084 | 86.57042 | 33085 ft | 519 kts | 110° |
| 2026-05-04 17:38 | 57.40907 | 86.69032 | 33089 ft | 520 kts | 111° |
| 2026-05-04 17:38 | 57.37719 | 86.80996 | 33085 ft | 519 kts | 111° |
| 2026-05-04 17:39 | 57.32942 | 86.98798 | 33079 ft | 501 kts | 111° |
| 2026-05-04 17:39 | 57.31916 | 87.02593 | 33082 ft | 489 kts | 111° |
| 2026-05-04 17:39 | 57.29931 | 87.09950 | 33090 ft | 481 kts | 110° |
| 2026-05-04 17:40 | 57.26907 | 87.21128 | 33098 ft | 491 kts | 111° |
| 2026-05-04 17:40 | 57.23843 | 87.32363 | 33091 ft | 490 kts | 111° |
| 2026-05-04 17:41 | 57.20772 | 87.43579 | 33098 ft | 489 kts | 111° |
| 2026-05-04 17:41 | 57.17721 | 87.54666 | 33099 ft | 489 kts | 110° |
| 2026-05-04 17:42 | 57.14616 | 87.65891 | 33106 ft | 491 kts | 112° |
| 2026-05-04 17:42 | 57.11525 | 87.77016 | 33094 ft | 492 kts | 111° |
| 2026-05-04 17:43 | 57.08411 | 87.88164 | 33112 ft | 491 kts | 111° |
| 2026-05-04 17:43 | 57.05290 | 87.99286 | 33102 ft | 492 kts | 111° |
| 2026-05-04 17:44 | 57.02145 | 88.10435 | 33110 ft | 491 kts | 111° |
| 2026-05-04 17:44 | 56.99023 | 88.21452 | 33096 ft | 490 kts | 111° |
| 2026-05-04 17:45 | 56.95869 | 88.32528 | 33110 ft | 489 kts | 111° |
| 2026-05-04 17:45 | 56.92714 | 88.43560 | 33116 ft | 490 kts | 111° |
| 2026-05-04 17:46 | 56.89716 | 88.54603 | 33110 ft | 484 kts | 104° |
| 2026-05-04 17:46 | 56.87280 | 88.66080 | 33100 ft | 485 kts | 105° |
| 2026-05-04 17:47 | 56.84739 | 88.77528 | 33113 ft | 487 kts | 106° |
| 2026-05-04 17:47 | 56.82165 | 88.88932 | 33113 ft | 487 kts | 106° |
| 2026-05-04 17:48 | 56.79573 | 89.00319 | 33101 ft | 488 kts | 106° |
| 2026-05-04 17:48 | 56.76971 | 89.11674 | 33082 ft | 487 kts | 106° |
| 2026-05-04 17:49 | 56.74350 | 89.23048 | 33082 ft | 487 kts | 106° |
| 2026-05-04 17:49 | 56.71723 | 89.34387 | 33093 ft | 488 kts | 106° |
| 2026-05-04 17:50 | 56.69075 | 89.45748 | 33093 ft | 488 kts | 106° |
| 2026-05-04 17:50 | 56.66427 | 89.57057 | 33099 ft | 487 kts | 106° |
| 2026-05-04 17:51 | 56.63766 | 89.68358 | 33096 ft | 488 kts | 107° |
| 2026-05-04 17:51 | 56.62426 | 89.74036 | 32919 ft | 493 kts | 107° |
| 2026-05-04 17:51 | 56.61079 | 89.79704 | 32764 ft | 483 kts | 107° |
| 2026-05-04 17:52 | 56.59765 | 89.85216 | 32285 ft | 476 kts | 107° |
| 2026-05-04 17:52 | 56.58465 | 89.90676 | 31692 ft | 472 kts | 106° |
| 2026-05-04 17:52 | 56.57180 | 89.96064 | 31104 ft | 471 kts | 105° |
| 2026-05-04 17:52 | 56.55876 | 90.01514 | 30438 ft | 468 kts | 105° |
| 2026-05-04 17:53 | 56.54586 | 90.06891 | 29801 ft | 464 kts | 106° |
| 2026-05-04 17:53 | 56.53314 | 90.12180 | 29184 ft | 460 kts | 106° |
| 2026-05-04 17:53 | 56.52045 | 90.17439 | 28582 ft | 455 kts | 106° |
| 2026-05-04 17:53 | 56.50789 | 90.22636 | 28007 ft | 451 kts | 105° |
| 2026-05-04 17:54 | 56.49539 | 90.27792 | 27434 ft | 446 kts | 105° |
| 2026-05-04 17:54 | 56.48306 | 90.32872 | 26887 ft | 442 kts | 105° |
| 2026-05-04 17:54 | 56.47066 | 90.37967 | 26345 ft | 439 kts | 106° |
| 2026-05-04 17:54 | 56.45847 | 90.42964 | 25823 ft | 437 kts | 106° |
| 2026-05-04 17:55 | 56.44629 | 90.47946 | 25296 ft | 435 kts | 105° |
| 2026-05-04 17:55 | 56.43412 | 90.52910 | 24793 ft | 432 kts | 105° |
| 2026-05-04 17:55 | 56.42196 | 90.57856 | 24277 ft | 429 kts | 105° |
| 2026-05-04 17:55 | 56.40998 | 90.62723 | 23785 ft | 424 kts | 106° |
| 2026-05-04 17:56 | 56.39801 | 90.67570 | 23307 ft | 421 kts | 107° |
| 2026-05-04 17:56 | 56.38615 | 90.72369 | 22811 ft | 418 kts | 107° |
| 2026-05-04 17:56 | 56.37444 | 90.77093 | 22329 ft | 415 kts | 107° |
| 2026-05-04 17:56 | 56.36270 | 90.81820 | 21859 ft | 412 kts | 107° |
| 2026-05-04 17:57 | 56.35110 | 90.86483 | 21379 ft | 409 kts | 107° |
| 2026-05-04 17:57 | 56.33935 | 90.91187 | 20884 ft | 406 kts | 107° |
| 2026-05-04 17:57 | 56.32792 | 90.95758 | 20400 ft | 402 kts | 107° |
| 2026-05-04 17:57 | 56.31653 | 91.00305 | 19925 ft | 397 kts | 107° |
| 2026-05-04 17:58 | 56.30526 | 91.04798 | 19473 ft | 395 kts | 108° |
| 2026-05-04 17:58 | 56.29401 | 91.09270 | 19023 ft | 392 kts | 108° |
| 2026-05-04 17:58 | 56.28428 | 91.13788 | 18573 ft | 382 kts | 96° |
| 2026-05-04 17:58 | 56.27983 | 91.18414 | 18170 ft | 371 kts | 90° |
| 2026-05-04 17:59 | 56.27613 | 91.22982 | 18126 ft | 365 kts | 90° |
| 2026-05-04 17:59 | 56.27246 | 91.27481 | 18127 ft | 373 kts | 90° |
| 2026-05-04 17:59 | 56.26485 | 91.36755 | 18145 ft | 376 kts | 91° |
| 2026-05-04 18:00 | 56.26100 | 91.41422 | 18114 ft | 375 kts | 90° |
| 2026-05-04 18:00 | 56.25716 | 91.46048 | 18135 ft | 374 kts | 90° |
| 2026-05-04 18:00 | 56.25330 | 91.50662 | 18127 ft | 363 kts | 90° |
| 2026-05-04 18:00 | 56.24960 | 91.55047 | 18102 ft | 349 kts | 90° |
| 2026-05-04 18:01 | 56.24603 | 91.59319 | 17687 ft | 348 kts | 90° |
| 2026-05-04 18:01 | 56.24248 | 91.63565 | 17272 ft | 345 kts | 90° |
| 2026-05-04 18:01 | 56.23958 | 91.67813 | 16850 ft | 337 kts | 82° |
| 2026-05-04 18:02 | 56.24640 | 91.75839 | 16017 ft | 322 kts | 70° |
| 2026-05-04 18:02 | 56.25074 | 91.79806 | 15598 ft | 320 kts | 70° |
| 2026-05-04 18:02 | 56.25508 | 91.83710 | 15207 ft | 317 kts | 70° |
| 2026-05-04 18:02 | 56.25942 | 91.87572 | 14734 ft | 318 kts | 70° |
| 2026-05-04 18:03 | 56.26377 | 91.91466 | 14359 ft | 314 kts | 70° |
| 2026-05-04 18:03 | 56.26811 | 91.95337 | 13945 ft | 313 kts | 70° |
| 2026-05-04 18:03 | 56.27237 | 91.99146 | 13577 ft | 311 kts | 71° |
| 2026-05-04 18:03 | 56.27662 | 92.02962 | 13182 ft | 309 kts | 71° |
| 2026-05-04 18:04 | 56.28081 | 92.06725 | 12792 ft | 307 kts | 71° |
| 2026-05-04 18:04 | 56.28499 | 92.10489 | 12425 ft | 305 kts | 71° |
| 2026-05-04 18:04 | 56.29317 | 92.17969 | 11653 ft | 302 kts | 75° |
| 2026-05-04 18:05 | 56.29315 | 92.21783 | 11239 ft | 309 kts | 90° |
| 2026-05-04 18:05 | 56.29082 | 92.25642 | 10879 ft | 306 kts | 90° |
| 2026-05-04 18:05 | 56.28862 | 92.29433 | 10490 ft | 305 kts | 91° |
| 2026-05-04 18:05 | 56.28629 | 92.33218 | 10140 ft | 303 kts | 91° |
| 2026-05-04 18:06 | 56.28153 | 92.40793 | 9328 ft | 300 kts | 91° |
| 2026-05-04 18:06 | 56.27916 | 92.44438 | 9250 ft | 288 kts | 91° |
| 2026-05-04 18:06 | 56.27687 | 92.48015 | 8897 ft | 287 kts | 91° |
| 2026-05-04 18:07 | 56.27457 | 92.51570 | 8566 ft | 286 kts | 91° |
| 2026-05-04 18:07 | 56.27226 | 92.55133 | 8246 ft | 283 kts | 91° |
| 2026-05-04 18:07 | 56.26999 | 92.58609 | 7903 ft | 282 kts | 91° |
| 2026-05-04 18:07 | 56.26769 | 92.62116 | 7433 ft | 281 kts | 92° |
| 2026-05-04 18:08 | 56.26537 | 92.65615 | 6988 ft | 278 kts | 94° |
| 2026-05-04 18:08 | 56.26015 | 92.68977 | 6449 ft | 283 kts | 111° |
| 2026-05-04 18:08 | 56.25239 | 92.72227 | 6044 ft | 278 kts | 110° |
| 2026-05-04 18:08 | 56.24494 | 92.75404 | 5578 ft | 278 kts | 111° |
| 2026-05-04 18:09 | 56.22449 | 92.81318 | 4599 ft | 286 kts | 146° |
| 2026-05-04 18:09 | 56.18723 | 92.82519 | 3665 ft | 278 kts | 201° |
| 2026-05-04 18:10 | 56.16952 | 92.81244 | 3383 ft | 270 kts | 206° |
| 2026-05-04 18:10 | 56.15235 | 92.79966 | 3194 ft | 261 kts | 206° |
| 2026-05-04 18:10 | 56.13615 | 92.78597 | 3007 ft | 251 kts | 219° |
| 2026-05-04 18:10 | 56.12558 | 92.76356 | 2991 ft | 228 kts | 251° |
| 2026-05-04 18:11 | 56.12364 | 92.73711 | 2984 ft | 208 kts | 279° |
| 2026-05-04 18:11 | 56.12636 | 92.71210 | 2959 ft | 198 kts | 284° |
| 2026-05-04 18:11 | 56.12907 | 92.68825 | 2972 ft | 194 kts | 286° |
| 2026-05-04 18:11 | 56.13309 | 92.66509 | 2745 ft | 193 kts | 290° |
| 2026-05-04 18:12 | 56.13762 | 92.64329 | 2516 ft | 177 kts | 292° |
| 2026-05-04 18:12 | 56.14194 | 92.62395 | 2299 ft | 160 kts | 292° |
| 2026-05-04 18:12 | 56.14599 | 92.60646 | 2048 ft | 143 kts | 293° |
| 2026-05-04 18:12 | 56.14967 | 92.59085 | 1813 ft | 128 kts | 292° |
| 2026-05-04 18:13 | 56.15238 | 92.57944 | 1693 ft | 130 kts | 292° |
| 2026-05-04 18:13 | 56.15597 | 92.56413 | 1554 ft | 138 kts | 291° |
| 2026-05-04 18:13 | 56.16367 | 92.53204 | 1125 ft | 141 kts | 292° |
| 2026-05-04 18:14 | 56.16749 | 92.51602 | 954 ft | 138 kts | 292° |
| 2026-05-04 18:14 | 56.17086 | 92.50182 | 945 ft | 95 kts | 294° |
| 2026-05-04 18:14 | 56.17285 | 92.49351 | 945 ft | 53 kts | 294° |
| 2026-05-04 18:15 | 56.17453 | 92.48754 | 945 ft | 15 kts | 319° |
| 2026-05-04 18:15 | 56.17625 | 92.48526 | 945 ft | 10 kts | 324° |
| 2026-05-04 18:15 | 56.17683 | 92.48450 | 945 ft | 10 kts | 324° |
| 2026-05-04 18:16 | 56.17732 | 92.48385 | 945 ft | 7 kts | 316° |
| 2026-05-04 18:16 | 56.17768 | 92.48282 | 945 ft | 13 kts | 295° |
| 2026-05-04 18:16 | 56.17804 | 92.48130 | 945 ft | 13 kts | 293° |
| 2026-05-04 18:17 | 56.17872 | 92.47839 | 945 ft | 11 kts | 292° |
| 2026-05-04 18:17 | 56.17903 | 92.47705 | 945 ft | 11 kts | 294° |
| 2026-05-04 18:17 | 56.17963 | 92.47455 | 945 ft | 11 kts | 293° |
| 2026-05-04 18:18 | 56.17998 | 92.47306 | 945 ft | 14 kts | 294° |
| 2026-05-04 18:18 | 56.18036 | 92.47147 | 945 ft | 13 kts | 294° |
| 2026-05-04 18:18 | 56.18073 | 92.46993 | 945 ft | 13 kts | 293° |
| 2026-05-04 18:18 | 56.18107 | 92.46851 | 945 ft | 11 kts | 292° |
| 2026-05-04 18:19 | 56.18221 | 92.46815 | 945 ft | 9 kts | 23° |
| 2026-05-04 18:19 | 56.18273 | 92.46867 | 945 ft | 7 kts | 51° |
| 2026-05-04 18:19 | 56.18290 | 92.46931 | 945 ft | 5 kts | 51° |
| 2026-05-04 18:20 | 56.18325 | 92.46969 | 945 ft | 3 kts | 25° |
| 2026-05-04 18:20 | 56.18328 | 92.46971 | 945 ft | 0 kts | 24° |